createdAt,value
2018-06-14T00:02:28.431Z,49.07
2018-06-14T00:04:56.830Z,53.33
2018-06-14T00:07:25.246Z,47.60
2018-06-14T00:09:53.679Z,52.13
2018-06-14T00:12:22.092Z,43.87
2018-06-14T00:14:50.552Z,50.00
2018-06-14T00:17:19.130Z,48.73
2018-06-14T00:19:47.498Z,47.67
2018-06-14T00:22:15.960Z,52.10
2018-06-14T00:24:44.424Z,55.03
2018-06-14T00:27:12.891Z,53.70
2018-06-14T00:29:41.596Z,58.07
2018-06-14T00:32:10.024Z,50.90
2018-06-14T00:34:38.920Z,60.87
2018-06-14T00:37:07.470Z,50.23
2018-06-14T00:39:36.593Z,53.13
2018-06-14T00:42:05.426Z,50.77
2018-06-14T00:44:34.677Z,56.13
2018-06-14T00:47:03.172Z,48.30
2018-06-14T00:49:31.585Z,56.37
2018-06-14T00:52:00.023Z,49.30
2018-06-14T00:54:28.496Z,53.63
2018-06-14T00:57:08.142Z,50.70
2018-06-14T00:59:36.606Z,46.47
2018-06-14T01:02:05.029Z,41.40
2018-06-14T01:04:33.500Z,52.00
2018-06-14T01:07:02.115Z,48.17
2018-06-14T01:09:30.735Z,49.60
2018-06-14T01:11:59.183Z,51.40
2018-06-14T01:14:27.611Z,58.43
2018-06-14T01:16:56.028Z,49.47
2018-06-14T01:19:24.535Z,57.53
2018-06-14T01:21:52.942Z,59.60
2018-06-14T01:24:21.391Z,56.13
2018-06-14T01:26:49.961Z,60.20
2018-06-14T01:29:18.407Z,59.23
2018-06-14T01:31:46.880Z,61.07
2018-06-14T01:34:15.380Z,76.47
2018-06-14T01:36:43.867Z,63.90
2018-06-14T01:39:12.300Z,79.20
2018-06-14T01:41:40.809Z,81.83
2018-06-14T01:44:09.184Z,37.57
2018-06-14T01:46:37.600Z,7.40
2018-06-14T01:49:06.359Z,77.47
2018-06-14T01:51:34.800Z,81.50
2018-06-14T01:54:03.272Z,77.30
2018-06-14T01:56:31.672Z,75.37
2018-06-14T01:59:00.551Z,82.27
2018-06-14T02:01:29.059Z,78.27
2018-06-14T02:03:57.524Z,87.87
2018-06-14T02:06:25.992Z,89.87
2018-06-14T02:08:54.449Z,85.60
2018-06-14T02:11:22.869Z,86.40
2018-06-14T02:13:51.331Z,89.50
2018-06-14T02:16:19.774Z,91.00
2018-06-14T02:18:48.243Z,91.97
2018-06-14T02:21:16.698Z,97.23
2018-06-14T02:23:45.148Z,103.23
2018-06-14T02:26:13.654Z,93.67
2018-06-14T02:28:42.100Z,100.03
2018-06-14T02:31:10.572Z,100.73
2018-06-14T02:33:38.984Z,99.80
2018-06-14T02:36:07.835Z,107.07
2018-06-14T02:38:36.324Z,107.67
2018-06-14T02:41:04.926Z,102.40
2018-06-14T02:43:33.624Z,101.50
2018-06-14T02:46:02.053Z,104.30
2018-06-14T02:48:30.540Z,102.47
2018-06-14T02:50:58.999Z,96.97
2018-06-14T02:53:27.425Z,102.50
2018-06-14T02:55:55.896Z,99.27
2018-06-14T02:58:24.301Z,90.77
2018-06-14T03:00:52.769Z,106.13
2018-06-14T03:03:21.294Z,84.87
2018-06-14T03:05:49.847Z,81.13
2018-06-14T03:08:18.260Z,80.30
2018-06-14T03:10:46.692Z,60.67
2018-06-14T03:13:15.147Z,74.73
2018-06-14T03:15:43.599Z,67.37
2018-06-14T03:18:12.294Z,69.60
2018-06-14T03:20:40.701Z,46.23
2018-06-14T03:23:09.184Z,33.90
2018-06-14T03:25:37.659Z,34.10
2018-06-14T03:28:06.125Z,30.57
2018-06-14T03:30:34.640Z,35.47
2018-06-14T03:33:03.089Z,28.50
2018-06-14T03:35:31.510Z,46.00
2018-06-14T03:38:00.139Z,56.20
2018-06-14T03:40:28.832Z,54.23
2018-06-14T03:42:57.316Z,73.03
2018-06-14T03:45:30.482Z,66.83
2018-06-14T03:47:58.955Z,79.23
2018-06-14T03:50:27.420Z,68.90
2018-06-14T03:52:55.854Z,74.47
2018-06-14T03:55:24.298Z,70.73
2018-06-14T03:57:53.000Z,75.90
2018-06-14T04:00:21.453Z,76.60
2018-06-14T04:02:49.892Z,71.50
2018-06-14T04:05:18.331Z,78.33
2018-06-14T04:07:46.743Z,73.00
2018-06-14T04:10:15.169Z,75.03
2018-06-14T04:12:43.590Z,76.93
2018-06-14T04:15:12.209Z,69.90
2018-06-14T04:17:40.677Z,70.27
2018-06-14T04:20:09.091Z,68.60
2018-06-14T04:22:37.728Z,69.20
2018-06-14T04:25:06.193Z,65.27
2018-06-14T04:27:34.622Z,58.87
2018-06-14T04:30:03.102Z,66.47
2018-06-14T04:32:32.408Z,58.77
2018-06-14T04:35:01.175Z,56.90
2018-06-14T04:37:29.607Z,58.53
2018-06-14T04:39:58.028Z,61.00
2018-06-14T04:42:26.507Z,58.23
2018-06-14T04:44:54.919Z,64.17
2018-06-14T04:47:23.339Z,65.00
2018-06-14T04:49:51.779Z,59.37
2018-06-14T04:52:20.216Z,63.93
2018-06-14T04:54:49.112Z,61.50
2018-06-14T04:57:18.599Z,61.07
2018-06-14T04:59:47.024Z,65.40
2018-06-14T05:02:16.059Z,56.67
2018-06-14T05:04:44.779Z,54.90
2018-06-14T05:07:13.275Z,53.70
2018-06-14T05:09:41.676Z,55.23
2018-06-14T05:12:10.460Z,61.60
2018-06-14T05:14:38.991Z,48.67
2018-06-14T05:17:07.637Z,57.07
2018-06-14T05:19:36.110Z,50.13
2018-06-14T05:22:04.555Z,58.90
2018-06-14T05:24:33.021Z,52.57
2018-06-14T05:27:01.758Z,56.20
2018-06-14T05:29:30.175Z,49.07
2018-06-14T05:31:58.668Z,53.00
2018-06-14T05:34:27.083Z,45.70
2018-06-14T05:36:55.499Z,48.43
2018-06-14T05:39:23.947Z,48.60
2018-06-14T05:41:52.408Z,49.80
2018-06-14T05:44:20.854Z,50.47
2018-06-14T05:46:49.502Z,54.07
2018-06-14T05:49:17.964Z,47.13
2018-06-14T05:51:46.394Z,48.07
2018-06-14T05:54:14.835Z,52.73
2018-06-14T05:56:43.444Z,42.17
2018-06-14T05:59:11.948Z,43.63
2018-06-14T06:01:40.405Z,42.00
2018-06-14T06:04:08.832Z,60.90
2018-06-14T06:06:37.404Z,37.57
2018-06-14T06:09:09.086Z,32.83
2018-06-14T06:11:37.667Z,42.60
2018-06-14T06:14:06.121Z,33.93
2018-06-14T06:16:34.569Z,36.37
2018-06-14T06:19:02.974Z,44.43
2018-06-14T06:21:31.683Z,36.30
2018-06-14T06:24:00.147Z,32.60
2018-06-14T06:26:28.568Z,31.37
2018-06-14T06:28:56.948Z,34.87
2018-06-14T06:31:25.541Z,32.97
2018-06-14T06:33:54.239Z,31.00
2018-06-14T06:36:22.690Z,29.23
2018-06-14T06:38:51.138Z,31.17
2018-06-14T06:41:19.564Z,43.07
2018-06-14T06:43:47.997Z,32.10
2018-06-14T06:46:16.461Z,37.43
2018-06-14T06:48:45.115Z,35.07
2018-06-14T06:51:13.534Z,31.23
2018-06-14T06:53:42.164Z,31.67
2018-06-14T06:56:10.620Z,32.90
2018-06-14T06:58:39.088Z,36.03
2018-06-14T07:01:07.543Z,33.00
2018-06-14T07:03:36.071Z,27.83
2018-06-14T07:06:04.590Z,29.03
2018-06-14T07:08:32.976Z,30.67
2018-06-14T07:11:01.416Z,27.40
2018-06-14T07:13:30.327Z,28.60
2018-06-14T07:15:58.815Z,26.27
2018-06-14T07:18:27.261Z,25.40
2018-06-14T07:20:55.903Z,26.13
2018-06-14T07:23:24.333Z,20.93
2018-06-14T07:25:52.947Z,22.60
2018-06-14T07:28:21.390Z,24.93
2018-06-14T07:30:49.866Z,26.40
2018-06-14T07:34:47.693Z,2266.67
2018-06-14T07:37:16.160Z,23.10
2018-06-14T07:39:44.640Z,31.93
2018-06-14T07:42:13.097Z,23.10
2018-06-14T07:44:41.499Z,26.23
2018-06-14T07:47:09.948Z,25.67
2018-06-14T07:49:38.371Z,26.83
2018-06-14T07:52:06.774Z,26.23
2018-06-14T07:54:35.198Z,28.37
2018-06-14T07:57:03.647Z,24.60
2018-06-14T07:59:32.125Z,24.07
2018-06-14T08:03:29.994Z,22.10
2018-06-14T08:05:58.415Z,23.00
2018-06-14T08:08:26.817Z,24.03
2018-06-14T08:10:55.224Z,23.63
2018-06-14T08:13:23.644Z,24.50
2018-06-14T08:15:52.104Z,21.37
2018-06-14T08:18:20.563Z,22.03
2018-06-14T08:20:48.979Z,26.60
2018-06-14T08:23:17.398Z,17.70
2018-06-14T08:25:45.823Z,16.77
2018-06-14T08:28:14.234Z,16.73
2018-06-14T08:30:42.916Z,15.60
2018-06-14T08:33:11.572Z,13.47
2018-06-14T08:35:40.020Z,13.23
2018-06-14T08:38:08.544Z,14.27
2018-06-14T08:40:37.029Z,14.70
2018-06-14T08:43:05.479Z,12.77
2018-06-14T08:45:33.879Z,11.70
2018-06-14T08:48:02.293Z,17.77
2018-06-14T08:52:00.102Z,10.80
2018-06-14T08:54:28.535Z,11.10
2018-06-14T08:56:57.279Z,11.90
2018-06-14T08:59:25.679Z,11.30
2018-06-14T09:01:54.134Z,9.13
2018-06-14T09:04:22.534Z,9.23
2018-06-14T09:06:50.974Z,10.20
2018-06-14T09:09:19.377Z,9.23
2018-06-14T09:11:47.780Z,12.93
2018-06-14T09:14:16.342Z,10.47
2018-06-14T09:16:44.780Z,8.80
2018-06-14T09:19:13.244Z,366.73
2018-06-14T09:21:41.739Z,8.67
2018-06-14T09:24:10.188Z,8.70
2018-06-14T09:26:39.020Z,13.80
2018-06-14T09:29:07.455Z,12.10
2018-06-14T09:31:35.880Z,7.67
2018-06-14T09:34:04.372Z,12.03
2018-06-14T09:36:33.862Z,9.80
2018-06-14T09:39:02.851Z,7.10
2018-06-14T09:41:31.302Z,9.70
2018-06-14T09:43:59.684Z,7.27
2018-06-14T09:46:28.112Z,8.17
2018-06-14T09:49:01.883Z,9.93
2018-06-14T09:51:30.295Z,7.93
2018-06-14T09:53:58.980Z,11.03
2018-06-14T09:56:27.659Z,9.60
2018-06-14T09:58:56.072Z,10.60
2018-06-14T10:01:24.525Z,8.60
2018-06-14T10:03:52.949Z,9.87
2018-06-14T10:06:21.364Z,8.10
2018-06-14T10:08:49.754Z,13.60
2018-06-14T10:11:18.182Z,10.40
2018-06-14T10:13:46.550Z,9.27
2018-06-14T10:16:15.499Z,9.87
2018-06-14T10:18:43.972Z,12.03
2018-06-14T10:21:12.695Z,8.87
2018-06-14T10:23:41.112Z,7.03
2018-06-14T10:26:09.769Z,7.83
2018-06-14T10:28:38.168Z,13.33
2018-06-14T10:31:06.783Z,12.10
2018-06-14T10:33:35.159Z,9.43
2018-06-14T10:36:03.644Z,8.37
2018-06-14T10:38:32.133Z,10.67
2018-06-14T10:41:00.555Z,9.43
2018-06-14T10:43:28.997Z,9.10
2018-06-14T10:45:57.391Z,15.93
2018-06-14T10:48:26.044Z,8.73
2018-06-14T10:50:54.782Z,9.33
2018-06-14T10:53:23.188Z,8.10
2018-06-14T10:55:51.620Z,9.20
2018-06-14T10:58:20.037Z,9.63
2018-06-14T11:00:48.768Z,6.80
2018-06-14T11:03:17.197Z,10.87
2018-06-14T11:05:45.626Z,6.83
2018-06-14T11:08:14.047Z,11.03
2018-06-14T11:10:42.439Z,7.10
2018-06-14T11:13:10.878Z,8.17
2018-06-14T11:15:39.621Z,1114.90
2018-06-14T11:18:08.049Z,8.40
2018-06-14T11:20:36.456Z,5.77
2018-06-14T11:23:04.886Z,7.63
2018-06-14T11:25:33.330Z,6.67
2018-06-14T11:28:01.726Z,7.43
2018-06-14T11:30:30.395Z,7.23
2018-06-14T11:32:58.794Z,7.97
2018-06-14T11:35:27.211Z,6.33
2018-06-14T11:37:55.690Z,5.47
2018-06-14T11:40:24.111Z,6.47
2018-06-14T11:42:52.575Z,8.50
2018-06-14T11:45:20.987Z,5.00
2018-06-14T11:47:49.419Z,5.10
2018-06-14T11:50:17.848Z,123.63
2018-06-14T11:52:46.256Z,6.80
2018-06-14T11:55:14.695Z,5.40
2018-06-14T11:57:43.163Z,6.67
2018-06-14T12:00:11.995Z,5.13
2018-06-14T12:02:40.696Z,8.10
2018-06-14T12:05:09.098Z,5.40
2018-06-14T12:07:37.541Z,4.87
2018-06-14T12:10:06.139Z,4.63
2018-06-14T12:12:34.601Z,5.20
2018-06-14T12:15:03.072Z,6.90
2018-06-14T12:17:31.437Z,5.63
2018-06-14T12:19:59.855Z,4.63
2018-06-14T12:22:28.400Z,5.77
2018-06-14T12:24:56.818Z,4.30
2018-06-14T12:27:25.447Z,4.50
2018-06-14T12:29:53.839Z,4.37
2018-06-14T12:32:22.220Z,3.73
2018-06-14T12:34:50.752Z,3.77
2018-06-14T12:37:19.163Z,4.30
2018-06-14T12:39:47.587Z,3.27
2018-06-14T12:42:16.092Z,3.50
2018-06-14T12:44:44.512Z,3.80
2018-06-14T12:47:13.117Z,5.70
2018-06-14T12:49:41.549Z,3.20
2018-06-14T12:52:09.948Z,3.23
2018-06-14T12:54:38.594Z,3.80
2018-06-14T12:57:06.980Z,4.40
2018-06-14T12:59:35.392Z,3.50
2018-06-14T13:02:03.808Z,5.07
2018-06-14T13:04:32.406Z,5.67
2018-06-14T13:07:00.838Z,3.80
2018-06-14T13:09:29.238Z,4.23
2018-06-14T13:11:57.683Z,3.97
2018-06-14T13:14:26.052Z,2.70
2018-06-14T13:16:54.483Z,3.23
2018-06-14T13:19:22.867Z,3.33
2018-06-14T13:21:51.280Z,4.40
2018-06-14T13:24:19.680Z,3.20
2018-06-14T13:26:48.181Z,2.70
2018-06-14T13:29:16.628Z,3.80
2018-06-14T13:31:45.040Z,10.87
2018-06-14T13:34:13.448Z,6.63
2018-06-14T13:36:42.204Z,5.27
2018-06-14T13:39:10.827Z,103.60
2018-06-14T13:41:39.331Z,4.23
2018-06-14T13:44:07.829Z,3.03
2018-06-14T13:46:40.064Z,3.30
2018-06-14T13:49:08.888Z,2.83
2018-06-14T13:51:37.439Z,3.37
2018-06-14T13:54:05.864Z,2.50
2018-06-14T13:56:34.525Z,5.20
2018-06-14T13:59:03.194Z,4.80
2018-06-14T14:01:31.623Z,4.20
2018-06-14T14:04:00.420Z,4.43
2018-06-14T14:06:29.292Z,7.37
2018-06-14T14:08:57.961Z,6.20
2018-06-14T14:11:26.386Z,14.37
2018-06-14T14:13:55.041Z,17.90
2018-06-14T14:16:23.450Z,8.90
2018-06-14T14:18:52.091Z,7.47
2018-06-14T14:21:20.494Z,8.23
2018-06-14T14:23:48.950Z,8.53
2018-06-14T14:26:17.338Z,18.63
2018-06-14T14:28:45.970Z,13.80
2018-06-14T14:31:14.675Z,11.27
2018-06-14T14:33:43.111Z,4.60
2018-06-14T14:36:11.505Z,9.20
2018-06-14T14:38:39.992Z,5.27
2018-06-14T14:41:08.578Z,8.30
2018-06-14T14:43:36.984Z,7.03
2018-06-14T14:46:05.558Z,5.43
2018-06-14T14:48:34.243Z,4.33
2018-06-14T14:51:02.847Z,7.43
2018-06-14T14:53:31.314Z,4.60
2018-06-14T14:55:59.760Z,5.60
2018-06-14T14:58:28.217Z,4.53
2018-06-14T15:00:56.633Z,5.20
2018-06-14T15:03:25.089Z,6.00
2018-06-14T15:05:53.511Z,12.43
2018-06-14T15:08:21.965Z,437.63
2018-06-14T15:10:50.391Z,9.17
2018-06-14T15:13:18.791Z,17.97
2018-06-14T15:15:47.395Z,30.33
2018-06-14T15:18:15.846Z,7.30
2018-06-14T15:20:44.402Z,14.13
2018-06-14T15:23:12.868Z,7.03
2018-06-14T15:25:41.268Z,9.27
2018-06-14T15:28:09.736Z,9.03
2018-06-14T15:30:38.120Z,8.60
2018-06-14T15:33:06.599Z,10.20
2018-06-14T15:35:35.091Z,9.23
2018-06-14T15:38:03.492Z,10.07
2018-06-14T15:40:32.303Z,11.70
2018-06-14T15:43:00.764Z,8.47
2018-06-14T15:45:29.188Z,12.50
2018-06-14T15:47:58.251Z,11.03
2018-06-14T15:50:26.724Z,8.73
2018-06-14T15:52:55.368Z,8.17
2018-06-14T15:55:33.777Z,10.07
2018-06-14T15:58:02.245Z,11.83
2018-06-14T16:00:30.655Z,13.63
2018-06-14T16:02:59.062Z,11.73
2018-06-14T16:05:27.649Z,7.70
2018-06-14T16:07:56.075Z,8.43
2018-06-14T16:10:24.470Z,8.70
2018-06-14T16:12:52.888Z,7.33
2018-06-14T16:15:21.303Z,8.17
2018-06-14T16:17:49.724Z,7.10
2018-06-14T16:20:18.197Z,9.83
2018-06-14T16:22:46.622Z,8.33
2018-06-14T16:25:15.051Z,6.00
2018-06-14T16:27:43.526Z,9.17
2018-06-14T16:30:11.984Z,274.03
2018-06-14T16:32:40.711Z,8.93
2018-06-14T16:35:09.181Z,8.47
2018-06-14T16:37:37.647Z,8.60
2018-06-14T16:40:06.114Z,9.30
2018-06-14T16:42:34.873Z,9.37
2018-06-14T16:45:03.349Z,8.93
2018-06-14T16:47:31.860Z,8.27
2018-06-14T16:50:00.276Z,9.13
2018-06-14T16:52:28.755Z,15.50
2018-06-14T16:54:57.221Z,14.37
2018-06-14T16:57:25.638Z,9.00
2018-06-14T16:59:54.136Z,16.37
2018-06-14T17:02:22.783Z,10.80
2018-06-14T17:04:51.499Z,10.70
2018-06-14T17:07:19.916Z,10.53
2018-06-14T17:09:48.970Z,13.23
2018-06-14T17:12:17.440Z,7.70
2018-06-14T17:14:45.847Z,12.10
2018-06-14T17:17:14.505Z,9.63
2018-06-14T17:19:43.009Z,12.47
2018-06-14T17:22:11.469Z,7.03
2018-06-14T17:24:40.024Z,12.37
2018-06-14T17:27:08.997Z,9.93
2018-06-14T17:29:37.502Z,8.33
2018-06-14T17:32:05.958Z,16.30
2018-06-14T17:34:34.385Z,17.73
2018-06-14T17:37:02.822Z,14.33
2018-06-14T17:39:31.890Z,11.10
2018-06-14T17:42:00.477Z,11.70
2018-06-14T17:44:29.045Z,27.33
2018-06-14T17:46:57.707Z,6.90
2018-06-14T17:49:26.107Z,16.13
2018-06-14T17:51:54.511Z,9.40
2018-06-14T17:54:22.909Z,7.20
2018-06-14T17:56:51.604Z,9.23
2018-06-14T17:59:19.983Z,8.53
2018-06-14T18:01:48.620Z,7.83
2018-06-14T18:04:17.282Z,8.33
2018-06-14T18:06:46.022Z,9.17
2018-06-14T18:09:14.455Z,8.13
2018-06-14T18:11:42.868Z,9.57
2018-06-14T18:14:11.444Z,13.03
2018-06-14T18:16:40.124Z,54.85
2018-06-14T18:19:08.719Z,17.97
2018-06-14T18:21:37.203Z,10.90
2018-06-14T18:24:05.655Z,14.00
2018-06-14T18:26:34.090Z,10.23
2018-06-14T18:29:02.562Z,15.30
2018-06-14T18:31:31.330Z,13.93
2018-06-14T18:33:59.768Z,13.83
2018-06-14T18:36:28.431Z,11.80
2018-06-14T18:38:56.883Z,8.13
2018-06-14T18:41:25.516Z,13.07
2018-06-14T18:43:54.112Z,22.23
2018-06-14T18:46:22.511Z,10.20
2018-06-14T18:48:51.270Z,11.37
2018-06-14T18:51:19.702Z,10.83
2018-06-14T18:53:48.095Z,16.30
2018-06-14T18:56:16.664Z,10.30
2018-06-14T18:58:45.102Z,9.57
2018-06-14T19:01:13.580Z,10.67
2018-06-14T19:03:42.101Z,9.37
2018-06-14T19:06:10.498Z,11.23
2018-06-14T19:08:39.055Z,10.10
2018-06-14T19:11:07.807Z,13.03
2018-06-14T19:13:36.252Z,12.20
2018-06-14T19:16:04.708Z,18.80
2018-06-14T19:18:33.137Z,13.37
2018-06-14T19:21:01.603Z,18.10
2018-06-14T19:23:30.791Z,11.67
2018-06-14T19:25:59.250Z,200.07
2018-06-14T19:28:27.714Z,17.00
2018-06-14T19:30:56.126Z,18.80
2018-06-14T19:33:24.918Z,13.90
2018-06-14T19:35:53.319Z,11.07
2018-06-14T19:38:21.766Z,17.10
2018-06-14T19:40:50.164Z,17.13
2018-06-14T19:43:18.566Z,19.00
2018-06-14T19:45:47.032Z,15.20
2018-06-14T19:48:15.411Z,13.40
2018-06-14T19:50:43.842Z,12.10
2018-06-14T19:53:12.252Z,15.90
2018-06-14T19:55:40.679Z,14.60
2018-06-14T19:58:09.161Z,13.93
2018-06-14T20:00:37.572Z,12.10
2018-06-14T20:03:06.513Z,11.07
2018-06-14T20:05:34.955Z,11.43
2018-06-14T20:08:03.380Z,16.50
2018-06-14T20:10:31.812Z,13.07
2018-06-14T20:13:00.215Z,14.17
2018-06-14T20:15:28.916Z,18.03
2018-06-14T20:17:57.348Z,11.90
2018-06-14T20:20:25.798Z,14.00
2018-06-14T20:22:54.520Z,12.73
2018-06-14T20:25:23.546Z,13.43
2018-06-14T20:27:52.008Z,14.80
2018-06-14T20:30:20.410Z,13.10
2018-06-14T20:32:49.004Z,13.83
2018-06-14T20:35:17.454Z,15.80
2018-06-14T20:37:45.887Z,13.47
2018-06-14T20:40:14.315Z,15.33
2018-06-14T20:42:42.772Z,14.53
2018-06-14T20:45:11.268Z,13.07
2018-06-14T20:47:39.715Z,13.90
2018-06-14T20:50:08.412Z,29.67
2018-06-14T20:52:36.811Z,19.47
2018-06-14T20:55:05.371Z,21.93
2018-06-14T20:57:34.850Z,17.33
2018-06-14T21:00:03.560Z,16.57
2018-06-14T21:02:32.684Z,14.83
2018-06-14T21:05:01.603Z,14.50
2018-06-14T21:07:30.147Z,15.93
2018-06-14T21:09:58.596Z,16.03
2018-06-14T21:12:27.681Z,17.27
2018-06-14T21:14:56.094Z,12.60
2018-06-14T21:17:24.610Z,17.77
2018-06-14T21:19:53.260Z,15.97
2018-06-14T21:22:21.984Z,14.27
2018-06-14T21:24:50.491Z,191.00
2018-06-14T21:27:18.957Z,2266.67
2018-06-14T21:29:47.399Z,2266.67
2018-06-14T21:32:15.829Z,2266.67
2018-06-14T21:34:44.294Z,2266.67
2018-06-14T21:37:12.704Z,2266.67
2018-06-14T21:39:41.095Z,2266.67
2018-06-14T21:42:09.576Z,2266.67
2018-06-14T21:44:38.038Z,2266.67
2018-06-14T21:47:07.551Z,78.87
2018-06-14T21:49:36.645Z,14.13
2018-06-14T21:52:05.172Z,12.50
2018-06-14T21:54:33.763Z,11.60
2018-06-14T21:57:02.294Z,12.20
2018-06-14T21:59:30.794Z,16.83
2018-06-14T22:01:59.199Z,16.70
2018-06-14T22:04:27.628Z,14.07
2018-06-14T22:06:56.138Z,18.83
2018-06-14T22:09:24.556Z,14.60
2018-06-14T22:11:53.084Z,14.00
2018-06-14T22:14:21.668Z,19.07
2018-06-14T22:16:50.091Z,16.60
2018-06-14T22:19:18.527Z,15.70
2018-06-14T22:21:46.947Z,18.80
2018-06-14T22:24:15.381Z,15.83
2018-06-14T22:26:43.807Z,15.30
2018-06-14T22:29:12.234Z,18.83
2018-06-14T22:31:40.659Z,14.53
2018-06-14T22:36:17.123Z,18.73
2018-06-14T22:38:46.237Z,15.40
2018-06-14T22:41:14.652Z,16.67
2018-06-14T22:43:43.240Z,18.47
2018-06-14T22:46:11.696Z,15.87
2018-06-14T22:48:40.152Z,18.07
2018-06-14T22:51:19.640Z,19.10
2018-06-14T22:53:48.620Z,18.90
2018-06-14T22:56:17.331Z,15.10
2018-06-14T22:58:46.251Z,18.63
2018-06-14T23:01:39.614Z,13.27
2018-06-14T23:04:09.458Z,16.77
2018-06-14T23:06:37.880Z,18.37
2018-06-14T23:09:13.690Z,15.90
2018-06-14T23:11:42.517Z,18.20
2018-06-14T23:14:10.979Z,17.90
2018-06-14T23:16:39.398Z,21.50
2018-06-14T23:19:08.306Z,16.53
2018-06-14T23:21:36.732Z,18.70
2018-06-14T23:24:05.195Z,15.17
2018-06-14T23:26:33.678Z,16.40
2018-06-14T23:29:02.128Z,17.97
2018-06-14T23:31:30.599Z,14.00
2018-06-14T23:33:59.036Z,16.47
2018-06-14T23:36:27.728Z,18.70
2018-06-14T23:38:56.173Z,16.30
2018-06-14T23:41:24.591Z,15.33
2018-06-14T23:43:53.104Z,14.93
2018-06-14T23:46:21.552Z,16.77
2018-06-14T23:48:49.979Z,16.50
2018-06-14T23:51:18.406Z,17.27
2018-06-14T23:53:46.804Z,18.50
2018-06-14T23:56:15.292Z,15.17
2018-06-14T23:58:43.999Z,18.73
